Time;durP1;ratioP1;P1;durP2;ratioP2;P2;SDS_P1;SDS_P2;PMS_P1;PMS_P2;Temp;Humidity;BMP_temperature;BMP_pressure;BME280_temperature;BME280_humidity;BME280_pressure;Samples;Min_cycle;Max_cycle;Signal;HPM_P1;HPM_P2
2022/10/20 05:06:14;;;;;;;10.57;7.57;;;;;;;7.63;99.99;101484.66;6396162;22;20408;-75
2022/10/20 05:08:42;;;;;;;14.75;8.90;;;;;;;7.41;100.00;101480.31;6399007;22;20063;-75
2022/10/20 05:11:08;;;;;;;10.82;7.45;;;;;;;7.40;100.00;101471.16;6397642;22;20051;-75
2022/10/20 05:16:06;;;;;;;8.68;6.47;;;;;;;7.45;100.00;101445.84;6363273;22;20018;-74
2022/10/20 05:18:32;;;;;;;13.90;8.23;;;;;;;7.40;100.00;101462.78;6363820;22;20656;-74
2022/10/20 05:20:57;;;;;;;13.75;7.40;;;;;;;7.49;100.00;101468.28;6336991;22;20387;-75
2022/10/20 05:23:23;;;;;;;12.85;7.80;;;;;;;7.72;100.00;101460.34;6360172;22;20010;-75
2022/10/20 05:25:49;;;;;;;12.05;7.95;;;;;;;7.42;100.00;101454.91;6334171;22;20011;-76
2022/10/20 05:28:15;;;;;;;14.77;9.02;;;;;;;7.36;100.00;101461.00;6360372;22;20055;-75
2022/10/20 05:30:40;;;;;;;13.85;9.63;;;;;;;7.59;100.00;101441.94;6362848;22;20006;-75
2022/10/20 05:33:06;;;;;;;12.98;8.77;;;;;;;7.57;100.00;101425.59;6358659;22;19998;-75
2022/10/20 05:35:31;;;;;;;12.32;7.57;;;;;;;7.59;100.00;101428.84;6361557;22;20006;-76
2022/10/20 05:37:56;;;;;;;17.85;8.35;;;;;;;7.50;100.00;101431.69;6361017;22;20002;-75
2022/10/20 05:40:22;;;;;;;14.68;8.98;;;;;;;7.57;100.00;101422.81;6331726;22;20006;-75
2022/10/20 05:42:48;;;;;;;13.10;8.63;;;;;;;7.60;99.77;101407.38;6332638;22;19997;-74
2022/10/20 05:45:13;;;;;;;16.05;8.95;;;;;;;7.58;100.00;101404.09;6364798;22;20014;-75
2022/10/20 05:47:38;;;;;;;13.43;9.07;;;;;;;7.52;100.00;101401.53;6365598;22;20006;-75
2022/10/20 05:50:04;;;;;;;12.27;8.85;;;;;;;7.56;100.00;101412.00;6366236;22;20005;-75
2022/10/20 05:52:29;;;;;;;14.52;8.55;;;;;;;7.45;100.00;101404.06;6364367;22;19994;-75
2022/10/20 05:54:55;;;;;;;13.45;9.30;;;;;;;7.37;100.00;101398.59;6365572;22;20025;-74
2022/10/20 05:57:20;;;;;;;14.43;8.32;;;;;;;7.39;100.00;101397.09;6360455;22;20037;-74
2022/10/20 05:59:45;;;;;;;14.48;8.65;;;;;;;7.34;100.00;101386.19;6363883;22;20006;-74
2022/10/20 06:02:11;;;;;;;16.73;9.55;;;;;;;7.42;100.00;101390.00;6362180;22;20110;-74
2022/10/20 06:04:37;;;;;;;19.45;9.85;;;;;;;7.54;100.00;101378.91;6366739;22;20006;-74
2022/10/20 06:07:04;;;;;;;15.05;8.95;;;;;;;7.42;100.00;101376.91;6365377;22;20031;-75
2022/10/20 06:09:30;;;;;;;16.83;10.52;;;;;;;7.32;100.00;101380.94;6363175;22;20011;-75
2022/10/20 06:11:55;;;;;;;18.77;10.57;;;;;;;7.41;100.00;101385.59;6358269;22;20014;-75
2022/10/20 06:14:21;;;;;;;14.68;10.18;;;;;;;7.51;100.00;101383.19;6360440;22;20017;-75
2022/10/20 06:16:50;;;;;;;14.43;9.57;;;;;;;7.51;100.00;101394.34;6357803;22;20030;-74
2022/10/20 06:19:16;;;;;;;16.05;10.25;;;;;;;7.72;100.00;101401.81;6365979;22;19999;-74
2022/10/20 06:21:41;;;;;;;15.98;9.93;;;;;;;7.79;100.00;101401.25;6337404;22;20014;-74
2022/10/20 06:24:06;;;;;;;14.85;9.35;;;;;;;7.87;99.88;101406.72;6338971;22;20020;-74
2022/10/20 06:26:35;;;;;;;18.92;11.35;;;;;;;7.83;99.86;101421.69;6358698;22;20022;-75
2022/10/20 06:29:01;;;;;;;12.40;9.20;;;;;;;7.84;100.00;101412.16;6362393;22;20201;-75
2022/10/20 06:31:33;;;;;;;19.58;10.57;;;;;;;7.68;100.00;101415.63;6334976;22;20006;-75
2022/10/20 06:34:00;;;;;;;22.90;13.32;;;;;;;7.75;100.00;101401.13;6360179;22;19998;-75
2022/10/20 06:36:26;;;;;;;17.48;10.15;;;;;;;7.64;100.00;101399.94;6359822;22;20030;-76
2022/10/20 06:38:56;;;;;;;16.33;11.02;;;;;;;7.79;100.00;101385.34;6336639;22;20029;-75
2022/10/20 06:41:23;;;;;;;16.50;10.20;;;;;;;7.84;100.00;101389.84;6364095;22;20007;-74
2022/10/20 06:43:48;;;;;;;17.05;10.90;;;;;;;7.66;100.00;101403.19;6365216;22;20322;-75
2022/10/20 06:46:17;;;;;;;15.60;9.80;;;;;;;7.82;100.00;101408.91;6361723;22;20007;-74
2022/10/20 06:48:43;;;;;;;16.60;9.93;;;;;;;7.90;100.00;101411.56;6362569;22;19999;-74
2022/10/20 06:51:20;;;;;;;19.40;11.27;;;;;;;7.98;99.83;101417.41;6365412;22;20003;-74
2022/10/20 06:53:47;;;;;;;20.83;10.63;;;;;;;7.94;99.84;101414.50;6367182;22;20002;-74
2022/10/20 06:56:13;;;;;;;12.95;10.23;;;;;;;7.90;100.00;101417.16;6336792;22;20002;-74
2022/10/20 06:58:40;;;;;;;16.73;10.88;;;;;;;7.89;100.00;101398.81;6367104;22;20104;-74
2022/10/20 07:01:16;;;;;;;17.92;11.35;;;;;;;7.76;100.00;101388.81;6363904;22;20392;-74
2022/10/20 07:03:42;;;;;;;20.17;11.43;;;;;;;7.64;100.00;101391.59;6363804;22;20005;-75
2022/10/20 07:06:12;;;;;;;16.02;10.63;;;;;;;7.74;100.00;101386.38;6337965;22;20006;-75
2022/10/20 07:08:38;;;;;;;12.73;9.27;;;;;;;7.92;100.00;101397.31;6364146;22;20051;-75
2022/10/20 07:11:09;;;;;;;14.35;9.75;;;;;;;8.17;98.56;101403.72;6332719;22;20432;-74
2022/10/20 07:13:36;;;;;;;16.15;10.25;;;;;;;8.37;97.15;101420.66;6364385;22;20023;-74
2022/10/20 07:16:02;;;;;;;26.27;10.80;;;;;;;8.39;96.97;101423.91;6365004;22;20017;-74
2022/10/20 07:18:29;;;;;;;18.98;10.55;;;;;;;8.32;97.71;101422.50;6365392;22;20433;-74
2022/10/20 07:20:59;;;;;;;15.65;10.65;;;;;;;8.40;97.31;101406.03;6364459;22;19998;-74
2022/10/20 07:23:26;;;;;;;19.20;11.07;;;;;;;8.53;96.18;101399.28;6362750;22;20373;-74
2022/10/20 07:25:58;;;;;;;13.75;9.68;;;;;;;8.54;95.81;101409.31;6366107;22;20010;-75
2022/10/20 07:28:24;;;;;;;13.27;10.07;;;;;;;8.55;96.24;101383.00;6365175;22;20329;-74
2022/10/20 07:30:49;;;;;;;15.23;9.77;;;;;;;8.51;96.43;101390.44;6364568;22;20285;-75
2022/10/20 07:33:14;;;;;;;15.23;11.07;;;;;;;8.33;97.37;101396.28;6361727;22;20367;-75
2022/10/20 07:35:40;;;;;;;13.27;9.80;;;;;;;8.41;97.90;101402.09;6333676;22;20401;-74
2022/10/20 07:38:06;;;;;;;14.98;10.13;;;;;;;8.60;96.67;101395.91;6362810;22;20002;-74
2022/10/20 07:40:31;;;;;;;16.38;11.55;;;;;;;8.44;97.26;101393.03;6338548;22;20457;-74
2022/10/20 07:42:56;;;;;;;16.60;10.77;;;;;;;8.51;96.66;101379.28;6365086;22;20006;-75
2022/10/20 07:45:21;;;;;;;17.90;10.32;;;;;;;8.66;95.99;101381.34;6365027;22;20010;-75
2022/10/20 07:47:47;;;;;;;16.63;10.25;;;;;;;8.59;96.58;101381.13;6365302;22;20319;-75
2022/10/20 07:50:12;;;;;;;15.57;11.00;;;;;;;8.40;97.37;101383.72;6365642;22;20380;-74
2022/10/20 07:52:38;;;;;;;19.50;11.25;;;;;;;8.55;97.12;101371.84;6359403;22;20036;-74
2022/10/20 07:55:05;;;;;;;16.63;10.95;;;;;;;8.47;97.39;101361.63;6364593;22;19998;-75
2022/10/20 07:57:30;;;;;;;16.00;10.80;;;;;;;8.66;96.65;101353.44;6337506;22;20060;-75
2022/10/20 07:59:55;;;;;;;19.00;11.32;;;;;;;8.62;96.15;101352.56;6366174;22;20003;-76
2022/10/20 08:02:22;;;;;;;17.50;11.80;;;;;;;8.53;97.39;101369.41;6362839;22;20002;-74
2022/10/20 08:04:48;;;;;;;18.80;12.02;;;;;;;8.45;97.91;101367.56;6362142;22;20010;-74
2022/10/20 08:07:13;;;;;;;14.07;9.57;;;;;;;8.51;97.52;101363.34;6362998;22;20009;-74
2022/10/20 08:09:38;;;;;;;16.10;10.70;;;;;;;8.55;97.22;101341.16;6336600;22;20002;-74
2022/10/20 08:12:04;;;;;;;18.75;9.95;;;;;;;8.58;97.00;101340.47;6366506;22;20033;-74
2022/10/20 08:14:34;;;;;;;18.45;11.73;;;;;;;8.67;96.32;101332.75;6338769;22;20013;-74
2022/10/20 08:17:01;;;;;;;15.63;10.90;;;;;;;8.82;95.68;101327.59;6364425;22;20017;-75
2022/10/20 08:19:27;;;;;;;14.95;10.98;;;;;;;8.77;96.24;101319.44;6366064;22;20033;-74
2022/10/20 08:21:52;;;;;;;15.70;11.60;;;;;;;8.70;96.32;101332.03;6363446;22;20493;-74
2022/10/20 08:24:18;;;;;;;16.83;12.65;;;;;;;8.73;95.75;101331.34;6365288;22;20037;-74
2022/10/20 08:26:43;;;;;;;16.55;11.40;;;;;;;8.84;96.31;101345.59;6363456;22;20038;-75
2022/10/20 08:29:08;;;;;;;15.02;11.50;;;;;;;8.79;97.65;101343.06;6366152;22;20010;-74
2022/10/20 08:31:34;;;;;;;17.92;11.60;;;;;;;8.86;97.06;101346.06;6335586;22;20533;-75
2022/10/20 08:33:59;;;;;;;17.83;11.32;;;;;;;8.79;96.80;101343.06;6365122;22;20428;-74
2022/10/20 08:36:27;;;;;;;15.02;11.02;;;;;;;8.91;96.56;101340.22;6338072;22;20342;-74
2022/10/20 08:38:53;;;;;;;26.73;13.48;;;;;;;8.94;97.07;101333.94;6360903;22;20009;-74
2022/10/20 08:41:26;;;;;;;18.75;10.90;;;;;;;9.17;100.00;101319.41;6338530;22;19998;-74
2022/10/20 08:43:53;;;;;;;;;;;;;;;8.98;96.74;101310.88;6365599;22;20505;-74
2022/10/20 08:46:23;;;;;;;17.73;11.45;;;;;;;9.02;95.75;101304.22;6364918;22;20013;-74
2022/10/20 08:48:49;;;;;;;22.80;12.15;;;;;;;9.06;96.46;101304.31;6338198;22;20002;-74
2022/10/20 08:51:23;;;;;;;19.38;11.57;;;;;;;8.95;97.45;101304.03;6362188;22;19998;-74
2022/10/20 08:53:52;;;;;;;18.65;12.05;;;;;;;8.98;97.34;101302.50;6366272;22;20021;-74
2022/10/20 08:56:22;;;;;;;14.93;11.13;;;;;;;8.99;97.74;101304.13;6335464;22;20047;-75
2022/10/20 08:58:48;;;;;;;20.02;12.57;;;;;;;8.97;97.77;101306.47;6363625;22;20006;-76
2022/10/20 09:01:19;;;;;;;17.77;11.77;;;;;;;9.04;97.77;101304.66;6337595;22;20013;-76
2022/10/20 09:03:53;;;;;;;20.77;11.98;;;;;;;9.10;97.23;101297.66;6337392;22;20325;-76
2022/10/20 09:06:18;;;;;;;18.17;12.05;;;;;;;9.13;97.31;101293.34;6367084;22;20006;-76
2022/10/20 09:08:45;;;;;;;21.80;12.18;;;;;;;9.23;96.04;101283.63;6367538;22;20328;-76
2022/10/20 09:11:17;;;;;;;19.80;13.27;;;;;;;9.19;96.44;101288.31;6363549;22;20006;-75
2022/10/20 09:13:43;;;;;;;17.05;11.70;;;;;;;9.27;96.85;101276.16;6366773;22;20002;-74
2022/10/20 09:16:19;;;;;;;18.67;12.52;;;;;;;9.31;97.01;101282.66;6365442;22;20010;-75
2022/10/20 09:18:49;;;;;;;23.45;12.73;;;;;;;9.36;96.62;101285.19;6364334;22;20029;-75
2022/10/20 09:21:21;;;;;;;17.13;12.32;;;;;;;9.45;96.60;101271.84;6362153;22;20334;-75
2022/10/20 09:23:51;;;;;;;20.20;11.45;;;;;;;9.53;96.33;101273.63;6363925;22;20001;-75
2022/10/20 09:26:20;;;;;;;19.05;12.38;;;;;;;9.63;96.26;101277.06;6363537;22;20010;-75
2022/10/20 09:28:51;;;;;;;18.65;11.85;;;;;;;9.75;95.63;101277.75;6336186;22;20473;-75
2022/10/20 09:31:35;;;;;;;19.70;12.35;;;;;;;9.85;96.12;101265.22;6334479;22;20009;-74
2022/10/20 09:34:00;;;;;;;16.33;10.48;;;;;;;9.91;95.29;101249.78;6365364;22;20418;-75
2022/10/20 09:36:32;;;;;;;17.25;12.27;;;;;;;9.99;95.48;101261.94;6337937;22;20120;-75
2022/10/20 09:38:58;;;;;;;19.65;12.00;;;;;;;10.02;94.94;101252.81;6361901;22;20034;-75
2022/10/20 09:41:26;;;;;;;17.67;12.18;;;;;;;10.08;94.28;101250.56;6335442;22;20027;-74
2022/10/20 09:43:59;;;;;;;19.38;10.82;;;;;;;10.21;94.69;101249.25;6363186;22;20067;-75
2022/10/20 09:46:30;;;;;;;18.23;11.90;;;;;;;10.45;93.40;101244.56;6335521;22;20006;-75
2022/10/20 09:48:57;;;;;;;16.42;11.30;;;;;;;10.33;93.76;101243.53;6334745;22;20020;-75
2022/10/20 09:51:25;;;;;;;19.05;13.15;;;;;;;10.31;94.32;101251.50;6332873;22;20057;-74
2022/10/20 09:53:59;;;;;;;21.17;13.00;;;;;;;10.32;95.06;101241.91;6335391;22;20089;-74
2022/10/20 09:56:37;;;;;;;20.38;11.50;;;;;;;10.41;95.05;101241.69;6364730;22;20003;-75
2022/10/20 09:59:26;;;;;;;18.27;12.00;;;;;;;10.47;94.96;101239.41;6362923;22;19998;-74
2022/10/20 10:02:22;;;;;;;16.63;12.55;;;;;;;10.55;95.68;101239.19;6344219;22;20010;-75
2022/10/20 10:04:50;;;;;;;21.35;14.05;;;;;;;10.71;95.61;101230.72;6364038;22;20013;-75
2022/10/20 10:07:24;;;;;;;18.08;11.75;;;;;;;10.75;95.25;101228.78;6364340;22;20489;-74
2022/10/20 10:10:00;;;;;;;15.63;12.23;;;;;;;10.85;95.32;101229.34;6364265;22;20008;-74
2022/10/20 10:12:27;;;;;;;19.77;11.70;;;;;;;10.88;95.57;101225.81;6363057;22;20299;-75
2022/10/20 10:14:59;;;;;;;22.00;12.73;;;;;;;10.92;95.05;101230.31;6366165;22;20014;-74
2022/10/20 10:17:32;;;;;;;22.83;12.77;;;;;;;10.95;96.02;101220.34;6307571;22;20018;-74
2022/10/20 10:19:58;;;;;;;;;;;;;;;10.98;95.62;101222.41;6363466;22;20009;-74
2022/10/20 10:22:24;;;;;;;20.85;12.02;;;;;;;11.05;96.19;101216.13;6334155;22;19980;-75
2022/10/20 10:24:50;;;;;;;19.80;13.48;;;;;;;11.10;96.29;101224.22;6365186;22;20030;-75
2022/10/20 10:27:31;;;;;;;20.67;13.25;;;;;;;11.17;96.18;101224.34;6364752;22;20009;-75
2022/10/20 10:30:27;;;;;;;19.27;13.45;;;;;;;11.27;96.50;101214.50;6368679;22;20002;-76
2022/10/20 10:32:53;;;;;;;21.10;12.63;;;;;;;11.32;97.41;101220.59;6365093;22;20334;-75
2022/10/20 10:35:36;;;;;;;18.38;12.63;;;;;;;11.37;96.88;101206.28;6366583;22;20007;-75
2022/10/20 10:38:01;;;;;;;19.35;13.07;;;;;;;11.45;96.34;101212.81;6337742;22;20064;-75
2022/10/20 10:40:52;;;;;;;19.30;12.80;;;;;;;11.47;96.78;101210.44;6362265;22;20481;-75
2022/10/20 10:43:47;;;;;;;19.85;12.85;;;;;;;11.50;96.23;101220.88;6364132;22;20436;-75
2022/10/20 10:46:25;;;;;;;29.23;13.30;;;;;;;11.54;96.36;101216.16;6361749;22;20208;-75
2022/10/20 10:49:35;;;;;;;32.13;12.98;;;;;;;11.52;96.59;101212.09;6363187;22;20311;-75
2022/10/20 10:52:26;;;;;;;25.35;11.93;;;;;;;11.56;96.43;101208.16;6305577;22;20005;-75
2022/10/20 10:55:01;;;;;;;18.70;12.40;;;;;;;11.57;96.85;101204.19;6345629;22;20044;-75
2022/10/20 10:57:31;;;;;;;23.05;13.50;;;;;;;11.62;96.97;101194.66;6363269;22;19998;-75
2022/10/20 11:00:06;;;;;;;22.77;11.57;;;;;;;11.62;96.62;101196.66;6335941;22;20017;-75
2022/10/20 11:03:13;;;;;;;19.38;12.80;;;;;;;11.62;97.41;101197.44;6361576;22;20469;-75
2022/10/20 11:05:54;;;;;;;22.02;13.23;;;;;;;11.62;97.21;101188.25;6318008;22;20021;-75
2022/10/20 11:08:39;;;;;;;17.55;12.00;;;;;;;11.65;97.66;101193.06;6366147;22;20005;-75
2022/10/20 11:11:21;;;;;;;17.95;11.80;;;;;;;11.65;97.86;101181.88;6368206;22;20013;-75
2022/10/20 11:14:09;;;;;;;25.92;13.93;;;;;;;11.68;98.08;101181.09;6366505;22;20073;-76
2022/10/20 11:16:48;;;;;;;21.98;13.07;;;;;;;11.68;98.38;101186.69;6362781;22;20051;-75
2022/10/20 11:19:56;;;;;;;20.83;12.75;;;;;;;11.69;99.05;101196.75;6364810;22;20009;-76
2022/10/20 11:23:00;;;;;;;22.05;12.80;;;;;;;11.72;98.91;101182.78;6360920;22;19999;-76
2022/10/20 11:26:03;;;;;;;20.05;13.73;;;;;;;11.68;100.00;101176.31;6297356;22;20017;-75
2022/10/20 11:28:57;;;;;;;24.65;13.52;;;;;;;11.69;100.00;101185.53;6330650;22;20438;-76
2022/10/20 11:31:41;;;;;;;20.70;13.70;;;;;;;11.66;100.00;101181.50;6334529;22;20429;-75
2022/10/20 11:34:34;;;;;;;21.05;13.75;;;;;;;11.68;100.00;101178.28;6363510;22;20014;-76
2022/10/20 11:37:14;;;;;;;24.42;13.40;;;;;;;11.64;100.00;101177.44;6368399;22;20421;-76
2022/10/20 11:39:42;;;;;;;27.02;15.43;;;;;;;11.65;100.00;101173.44;6368180;22;20093;-75
2022/10/20 11:42:38;;;;;;;24.63;13.60;;;;;;;11.63;100.00;101173.03;6368425;22;20009;-76
2022/10/20 11:45:24;;;;;;;29.98;15.02;;;;;;;11.62;100.00;101154.59;6371447;22;20007;-75
2022/10/20 11:47:58;;;;;;;27.85;15.65;;;;;;;11.58;100.00;101154.53;6365547;22;20375;-76
2022/10/20 11:50:24;;;;;;;23.92;14.48;;;;;;;11.57;100.00;101159.34;6368442;22;20536;-76
2022/10/20 11:53:28;;;;;;;23.88;14.60;;;;;;;11.56;100.00;101154.09;6367479;22;20003;-75
2022/10/20 11:56:10;;;;;;;27.33;14.98;;;;;;;11.56;100.00;101148.50;6367200;22;20434;-75
2022/10/20 11:58:51;;;;;;;23.33;15.50;;;;;;;11.56;100.00;101149.28;6367922;22;20494;-77
2022/10/20 12:01:36;;;;;;;24.08;14.27;;;;;;;11.57;100.00;101142.53;6365830;22;20482;-76
2022/10/20 12:04:46;;;;;;;26.60;14.95;;;;;;;11.57;100.00;101125.69;6365507;22;20333;-76
2022/10/20 12:07:47;;;;;;;26.08;15.73;;;;;;;11.55;100.00;101130.88;6325221;22;20438;-76
2022/10/20 12:10:38;;;;;;;34.25;16.75;;;;;;;11.58;100.00;101138.50;6362113;22;20002;-76
2022/10/20 12:13:12;;;;;;;28.10;16.80;;;;;;;11.55;100.00;101119.66;6363975;22;20436;-76
2022/10/20 12:15:49;;;;;;;31.52;16.80;;;;;;;11.60;100.00;101118.50;6335592;22;20464;-76
2022/10/20 12:18:29;;;;;;;30.38;16.73;;;;;;;11.60;100.00;101124.94;6358503;22;20014;-76
2022/10/20 12:21:00;;;;;;;29.92;16.48;;;;;;;11.62;100.00;101126.56;6363768;22;20005;-76
2022/10/20 12:23:44;;;;;;;28.23;16.55;;;;;;;11.66;100.00;101122.63;6365404;22;20051;-75
2022/10/20 12:26:28;;;;;;;31.70;15.60;;;;;;;11.82;100.00;101114.00;6362150;22;20429;-76
2022/10/20 12:28:53;;;;;;;28.02;15.65;;;;;;;11.73;100.00;101099.47;6366616;22;20013;-76
2022/10/20 12:31:18;;;;;;;29.38;18.23;;;;;;;11.72;100.00;101114.66;6364489;22;20006;-76
2022/10/20 12:33:53;;;;;;;30.38;17.10;;;;;;;11.71;100.00;101122.25;6366125;22;20010;-76
2022/10/20 12:36:18;;;;;;;30.02;15.73;;;;;;;11.71;100.00;101118.66;6339230;22;20051;-76
2022/10/20 12:38:46;;;;;;;29.20;16.98;;;;;;;11.70;100.00;101114.22;6338350;22;20006;-76
2022/10/20 12:41:26;;;;;;;35.40;17.60;;;;;;;11.69;100.00;101121.03;6367051;22;20009;-76
2022/10/20 12:43:53;;;;;;;32.88;16.90;;;;;;;11.67;100.00;101107.38;6364235;22;20414;-76
2022/10/20 12:46:26;;;;;;;31.77;17.42;;;;;;;11.71;100.00;101104.63;6335778;22;20013;-76
2022/10/20 12:48:58;;;;;;;33.80;17.45;;;;;;;11.70;100.00;101097.41;6363984;22;20006;-76
2022/10/20 12:52:00;;;;;;;28.95;17.55;;;;;;;11.74;100.00;101095.44;6362203;22;20005;-76
2022/10/20 12:54:33;;;;;;;31.60;17.50;;;;;;;11.71;100.00;101105.44;6239741;23;20452;-76
2022/10/20 12:57:03;;;;;;;31.52;18.13;;;;;;;11.72;100.00;101098.66;6342721;22;20006;-76
2022/10/20 12:59:28;;;;;;;29.83;18.08;;;;;;;11.66;100.00;101088.97;6364666;22;20071;-76
2022/10/20 13:02:17;;;;;;;31.52;17.33;;;;;;;11.69;100.00;101082.56;6363297;22;20485;-76
2022/10/20 13:05:06;;;;;;;36.25;18.83;;;;;;;11.71;100.00;101082.22;6348936;22;20345;-76
2022/10/20 13:07:47;;;;;;;29.75;18.48;;;;;;;11.71;100.00;101090.63;6365565;22;20026;-76
2022/10/20 13:10:31;;;;;;;33.08;18.48;;;;;;;11.72;100.00;101086.63;6365256;22;20002;-76
2022/10/20 13:13:02;;;;;;;34.55;18.25;;;;;;;11.73;100.00;101085.44;6366526;22;20083;-76
2022/10/20 13:15:30;;;;;;;35.25;19.63;;;;;;;11.74;100.00;101085.06;6365129;22;20310;-76
2022/10/20 13:18:12;;;;;;;35.28;19.73;;;;;;;11.72;100.00;101083.81;6336234;22;20002;-76
2022/10/20 13:20:56;;;;;;;39.65;20.80;;;;;;;11.75;100.00;101074.66;6335469;22;20076;-76
2022/10/20 13:23:46;;;;;;;36.58;20.08;;;;;;;11.70;100.00;101073.00;6337123;22;19994;-76
2022/10/20 13:26:19;;;;;;;39.15;20.50;;;;;;;11.73;100.00;101077.03;6364660;22;20009;-76
2022/10/20 13:28:51;;;;;;;35.75;19.52;;;;;;;11.75;100.00;101071.84;6364981;22;20002;-76
2022/10/20 13:31:34;;;;;;;36.80;19.58;;;;;;;11.75;100.00;101069.84;6337043;22;20002;-76
2022/10/20 13:34:24;;;;;;;37.88;19.92;;;;;;;11.80;100.00;101071.50;6366718;22;20059;-76
2022/10/20 13:36:58;;;;;;;47.30;22.58;;;;;;;11.83;100.00;101067.13;6337578;22;20006;-76
2022/10/20 13:39:38;;;;;;;40.38;20.60;;;;;;;11.79;100.00;101064.28;6339128;22;20009;-77
2022/10/20 13:42:22;;;;;;;38.85;19.73;;;;;;;11.85;100.00;101057.16;6366618;22;20059;-76
2022/10/20 13:45:01;;;;;;;46.60;21.08;;;;;;;11.88;100.00;101050.78;6335746;22;20983;-76
2022/10/20 13:47:35;;;;;;;35.97;20.90;;;;;;;11.92;100.00;101048.03;6363428;22;20418;-76
2022/10/20 13:50:06;;;;;;;39.20;20.77;;;;;;;11.95;100.00;101038.84;6364295;22;20397;-76
2022/10/20 13:52:36;;;;;;;40.50;20.60;;;;;;;11.92;100.00;101037.63;6365151;22;20055;-76
2022/10/20 13:55:06;;;;;;;35.10;20.27;;;;;;;11.94;100.00;101040.06;6365554;22;20009;-75
2022/10/20 13:57:34;;;;;;;37.97;21.65;;;;;;;11.93;100.00;101033.63;6364810;22;20496;-76
2022/10/20 14:00:04;;;;;;;36.20;21.13;;;;;;;11.99;100.00;101046.13;6365785;22;20007;-76
2022/10/20 14:02:33;;;;;;;45.20;23.42;;;;;;;11.98;100.00;101038.09;6363799;22;19998;-76
2022/10/20 14:05:09;;;;;;;41.65;21.15;;;;;;;11.97;100.00;101048.50;6365779;22;20010;-76
2022/10/20 14:07:39;;;;;;;41.20;20.80;;;;;;;11.98;100.00;101050.13;6336426;22;20059;-76
2022/10/20 14:10:07;;;;;;;52.40;23.77;;;;;;;12.03;100.00;101039.75;6337957;22;20014;-76
2022/10/20 14:12:32;;;;;;;44.75;23.10;;;;;;;12.00;100.00;101047.72;6337551;22;19997;-76
2022/10/20 14:14:58;;;;;;;43.20;23.30;;;;;;;11.99;100.00;101039.69;6367267;22;20010;-76
2022/10/20 14:17:24;;;;;;;43.08;21.83;;;;;;;12.05;100.00;101037.38;6366492;22;20017;-76
2022/10/20 14:20:06;;;;;;;41.78;22.65;;;;;;;12.07;100.00;101034.97;6340627;22;20002;-78
2022/10/20 14:22:33;;;;;;;42.83;21.95;;;;;;;12.10;100.00;101034.19;6366282;22;20004;-76
2022/10/20 14:25:04;;;;;;;42.65;23.90;;;;;;;12.13;100.00;101039.06;6364150;22;20442;-76
2022/10/20 14:27:31;;;;;;;45.05;23.90;;;;;;;12.13;100.00;101033.44;6336645;22;20085;-76
2022/10/20 14:29:58;;;;;;;43.95;23.08;;;;;;;12.13;100.00;101037.03;6366001;22;20059;-76
2022/10/20 14:32:27;;;;;;;47.90;23.73;;;;;;;12.16;100.00;101024.25;6335381;22;20006;-76
2022/10/20 14:35:12;;;;;;;40.90;22.75;;;;;;;12.17;100.00;101023.06;6365153;22;20426;-76
2022/10/20 14:37:40;;;;;;;47.05;24.10;;;;;;;12.19;100.00;101020.69;6335241;22;20005;-76
2022/10/20 14:40:17;;;;;;;44.42;25.38;;;;;;;12.24;100.00;101016.72;6365333;22;20334;-76
2022/10/20 14:42:44;;;;;;;53.50;25.80;;;;;;;12.25;100.00;101010.72;6364009;22;20255;-76
2022/10/20 14:45:18;;;;;;;46.65;22.52;;;;;;;12.31;100.00;101003.56;6363562;22;20006;-76
2022/10/20 14:47:44;;;;;;;43.97;22.88;;;;;;;12.35;100.00;101010.00;6366813;22;20009;-76
2022/10/20 14:50:21;;;;;;;45.10;24.58;;;;;;;12.47;100.00;101006.09;6366505;22;19999;-76
2022/10/20 14:52:46;;;;;;;50.25;25.35;;;;;;;12.58;100.00;101004.16;6336127;22;19994;-76
2022/10/20 14:55:35;;;;;;;42.05;24.90;;;;;;;12.65;100.00;101009.06;6364737;22;20067;-76
2022/10/20 14:58:01;;;;;;;53.50;28.15;;;;;;;12.68;100.00;101005.47;6336104;22;20420;-76
2022/10/20 15:00:29;;;;;;;55.55;28.48;;;;;;;12.71;100.00;101007.50;6362969;22;20002;-76
2022/10/20 15:02:57;;;;;;;50.25;26.58;;;;;;;12.71;100.00;100996.28;6336844;22;19999;-76
2022/10/20 15:05:25;;;;;;;55.03;26.20;;;;;;;12.69;100.00;100998.66;6362890;22;20016;-76
2022/10/20 15:07:52;;;;;;;49.08;27.27;;;;;;;12.73;100.00;100999.50;6367121;22;20031;-76
2022/10/20 15:10:22;;;;;;;50.90;25.40;;;;;;;12.72;100.00;100992.25;6336966;22;20029;-76
2022/10/20 15:12:51;;;;;;;50.97;26.30;;;;;;;12.76;100.00;100995.91;6336021;22;20444;-76
2022/10/20 15:15:22;;;;;;;49.17;25.80;;;;;;;12.73;100.00;100987.44;6308597;22;20016;-76
2022/10/20 15:17:50;;;;;;;49.72;26.15;;;;;;;12.80;100.00;100993.13;6201874;23;20009;-76
2022/10/20 15:20:33;;;;;;;48.45;26.77;;;;;;;12.79;100.00;101003.53;6206855;23;20454;-76
2022/10/20 15:23:02;;;;;;;50.75;27.23;;;;;;;12.82;100.00;101008.38;6203992;23;20342;-76
2022/10/20 15:25:44;;;;;;;58.13;28.02;;;;;;;12.83;100.00;101014.81;6307370;22;20013;-76
2022/10/20 15:28:24;;;;;;;48.13;26.23;;;;;;;12.82;100.00;101008.38;6201549;23;20001;-76
2022/10/20 15:30:50;;;;;;;49.47;26.67;;;;;;;12.88;100.00;101010.81;6202635;23;20477;-76
2022/10/20 15:33:15;;;;;;;52.88;26.65;;;;;;;12.87;100.00;101010.00;6200841;23;20028;-77
2022/10/20 15:35:44;;;;;;;51.45;28.35;;;;;;;12.85;100.00;101020.03;6201975;23;20013;-76
2022/10/20 15:38:10;;;;;;;45.78;26.92;;;;;;;12.87;100.00;101014.84;6203328;23;20032;-76
2022/10/20 15:40:35;;;;;;;47.72;27.52;;;;;;;12.88;100.00;101022.06;6310432;22;20027;-76
2022/10/20 15:43:01;;;;;;;55.10;28.10;;;;;;;12.90;100.00;101025.28;6207247;22;20324;-76
2022/10/20 15:45:31;;;;;;;54.15;29.23;;;;;;;12.88;100.00;101022.06;6203226;22;20015;-76
2022/10/20 15:47:57;;;;;;;64.30;33.50;;;;;;;12.86;100.00;101018.81;6203298;23;20153;-76
2022/10/20 15:50:22;;;;;;;60.63;37.13;;;;;;;12.88;100.00;101019.25;6206457;23;20039;-76
2022/10/20 15:52:47;;;;;;;59.50;32.15;;;;;;;12.87;100.00;101023.25;6204551;22;20001;-76
2022/10/20 15:55:21;;;;;;;62.45;35.25;;;;;;;12.90;100.00;101025.28;6205208;23;20443;-76
2022/10/20 15:57:51;;;;;;;62.88;34.95;;;;;;;12.88;100.00;101027.66;6204243;23;20028;-76
2022/10/20 16:00:18;;;;;;;62.20;33.15;;;;;;;12.90;100.00;101025.28;6204796;22;20008;-76
2022/10/20 16:02:44;;;;;;;62.17;35.88;;;;;;;12.90;100.00;101019.66;6202123;23;20088;-76
2022/10/20 16:05:10;;;;;;;53.95;33.38;;;;;;;12.87;100.00;101014.84;6207093;23;20043;-76
2022/10/20 16:07:35;;;;;;;56.53;35.30;;;;;;;12.90;100.00;101008.44;6311793;22;20026;-76
2022/10/20 16:10:00;;;;;;;59.88;39.63;;;;;;;12.91;100.00;100998.81;6205001;23;20009;-76
2022/10/20 16:12:25;;;;;;;56.42;36.00;;;;;;;12.95;100.00;101005.25;6204778;23;20277;-76
2022/10/20 16:14:51;;;;;;;64.53;37.20;;;;;;;12.89;100.00;100995.59;6205266;23;20580;-76
2022/10/20 16:17:17;;;;;;;63.33;38.97;;;;;;;12.93;100.00;101002.03;6201594;23;20339;-76
2022/10/20 16:19:42;;;;;;;59.60;34.40;;;;;;;12.91;100.00;101010.06;6310303;22;20025;-76
2022/10/20 16:22:07;;;;;;;55.78;33.75;;;;;;;12.94;100.00;101006.44;6205373;23;20508;-76
2022/10/20 16:24:33;;;;;;;57.95;36.50;;;;;;;12.96;100.00;101001.25;6312186;22;20039;-76
2022/10/20 16:26:58;;;;;;;61.65;35.55;;;;;;;12.95;100.00;100994.81;6207534;23;20009;-76
2022/10/20 16:29:23;;;;;;;57.78;32.50;;;;;;;12.90;100.00;100998.00;6206293;22;20009;-76
2022/10/20 16:31:49;;;;;;;55.03;31.20;;;;;;;12.90;100.00;100995.19;6204099;23;20273;-76
2022/10/20 16:34:14;;;;;;;50.00;28.90;;;;;;;13.04;100.00;100991.66;6206411;22;19996;-76
2022/10/20 16:36:39;;;;;;;52.38;30.90;;;;;;;13.11;100.00;101002.97;6206264;23;20016;-76
2022/10/20 16:39:04;;;;;;;58.05;32.85;;;;;;;13.02;100.00;100989.25;6202579;23;20005;-75